Time;durP1;ratioP1;P1;durP2;ratioP2;P2;SDS_P1;SDS_P2;PMS_P1;PMS_P2;Temp;Humidity;BMP_temperature;BMP_pressure;BME280_temperature;BME280_humidity;BME280_pressure;Samples;Min_cycle;Max_cycle;Signal;HPM_P1;HPM_P2
2023/11/12 00:00:09;;;;;;;28.77;5.30;;;24.70;63.90;;;;;;4934569;29;20194;-75
2023/11/12 00:02:37;;;;;;;21.87;5.40;;;25.00;63.60;;;;;;4931937;29;20180;-74
2023/11/12 00:05:04;;;;;;;19.87;4.80;;;25.30;62.10;;;;;;4933083;29;20612;-74
2023/11/12 00:07:31;;;;;;;24.70;5.93;;;25.50;61.90;;;;;;4922188;29;20218;-73
2023/11/12 00:09:59;;;;;;;23.63;6.03;;;25.70;61.60;;;;;;4935414;29;20175;-74
2023/11/12 00:12:28;;;;;;;26.17;5.23;;;25.10;62.40;;;;;;4935741;29;20176;-75
2023/11/12 00:14:55;;;;;;;17.03;4.07;;;25.10;62.50;;;;;;4934838;29;20180;-73
2023/11/12 00:17:24;;;;;;;21.33;5.90;;;25.30;61.80;;;;;;4930817;29;20274;-73
2023/11/12 00:19:52;;;;;;;26.30;5.43;;;25.40;62.50;;;;;;4930171;29;20190;-73
2023/11/12 00:22:20;;;;;;;25.83;5.43;;;25.50;62.20;;;;;;4934122;29;20680;-75
2023/11/12 00:24:48;;;;;;;23.23;5.13;;;25.30;62.40;;;;;;4933564;29;20184;-74
2023/11/12 00:27:18;;;;;;;22.10;5.47;;;25.80;61.70;;;;;;4931186;29;20195;-74
2023/11/12 00:29:46;;;;;;;22.20;5.13;;;26.10;61.00;;;;;;4930836;29;20650;-74
2023/11/12 00:32:14;;;;;;;26.27;5.90;;;26.40;60.10;;;;;;4932929;29;20206;-74
2023/11/12 00:34:41;;;;;;;29.27;5.50;;;26.50;59.90;;;;;;4934318;29;20655;-72
2023/11/12 00:37:08;;;;;;;22.47;5.17;;;26.60;59.50;;;;;;4922868;29;20222;-72
2023/11/12 00:39:36;;;;;;;25.83;5.10;;;26.50;59.60;;;;;;4932081;29;20199;-71
2023/11/12 00:42:03;;;;;;;20.83;4.60;;;26.80;59.70;;;;;;4929785;29;20172;-72
2023/11/12 00:44:30;;;;;;;25.60;5.53;;;26.90;59.00;;;;;;4933534;29;20190;-72
2023/11/12 00:46:58;;;;;;;25.70;5.87;;;27.10;57.60;;;;;;4931452;29;20180;-71
2023/11/12 00:49:25;;;;;;;25.57;6.27;;;27.00;58.50;;;;;;4929750;29;20180;-72
2023/11/12 00:51:52;;;;;;;22.83;5.20;;;27.10;58.30;;;;;;4929183;29;20180;-72
2023/11/12 00:54:19;;;;;;;32.70;6.23;;;27.10;58.70;;;;;;4934246;29;20275;-73
2023/11/12 00:56:47;;;;;;;29.23;5.77;;;27.00;59.10;;;;;;4935956;29;20192;-71
2023/11/12 00:59:14;;;;;;;27.23;5.43;;;27.00;58.70;;;;;;4938478;29;20585;-71
2023/11/12 01:01:41;;;;;;;23.27;5.43;;;26.90;58.90;;;;;;4935616;29;20187;-73
2023/11/12 01:04:11;;;;;;;25.73;5.20;;;27.30;58.10;;;;;;4935792;29;20677;-72
2023/11/12 01:06:38;;;;;;;19.30;5.03;;;26.90;59.10;;;;;;4932125;29;20570;-74
2023/11/12 01:09:08;;;;;;;24.60;5.20;;;27.10;58.80;;;;;;4937962;29;20191;-72
2023/11/12 01:11:37;;;;;;;25.03;5.47;;;26.80;59.50;;;;;;4937343;29;20255;-73
2023/11/12 01:14:04;;;;;;;18.70;5.00;;;27.10;58.50;;;;;;4933655;29;20193;-77
2023/11/12 01:16:33;;;;;;;22.23;4.77;;;27.00;58.10;;;;;;4935599;29;20207;-72
2023/11/12 01:19:00;;;;;;;18.80;4.40;;;27.10;59.00;;;;;;4934622;29;20238;-71
2023/11/12 01:21:28;;;;;;;24.03;5.40;;;27.20;58.20;;;;;;4938233;29;20228;-77
2023/11/12 01:23:55;;;;;;;22.10;4.67;;;26.90;58.60;;;;;;4936909;29;20243;-73
2023/11/12 01:26:24;;;;;;;21.00;4.97;;;27.00;59.40;;;;;;4937855;29;20188;-77
2023/11/12 01:28:52;;;;;;;21.50;4.70;;;27.20;58.00;;;;;;4936614;29;20211;-75
2023/11/12 01:31:20;;;;;;;20.83;4.83;;;27.10;58.90;;;;;;4938869;29;20191;-73
2023/11/12 01:33:47;;;;;;;28.83;5.10;;;26.80;59.30;;;;;;4936845;29;20650;-76
2023/11/12 01:36:15;;;;;;;25.07;5.67;;;27.00;59.70;;;;;;4933519;29;20755;-77
2023/11/12 01:38:42;;;;;;;23.30;4.93;;;27.10;58.70;;;;;;4935018;29;20224;-75
2023/11/12 01:41:09;;;;;;;21.20;4.87;;;27.10;59.90;;;;;;4936761;29;20195;-74
2023/11/12 01:43:37;;;;;;;20.40;4.67;;;27.30;58.80;;;;;;4928113;29;20204;-75
2023/11/12 01:46:05;;;;;;;25.17;5.50;;;27.20;58.60;;;;;;4937360;29;20180;-73
2023/11/12 01:48:33;;;;;;;24.07;5.20;;;27.30;58.40;;;;;;4930121;29;20191;-73
2023/11/12 01:51:04;;;;;;;19.80;4.63;;;27.40;59.00;;;;;;4933352;29;20172;-80
2023/11/12 01:53:34;;;;;;;23.33;5.53;;;27.20;58.30;;;;;;4934873;29;20180;-74
2023/11/12 01:56:03;;;;;;;22.47;5.03;;;26.90;59.80;;;;;;4934130;29;20215;-76
2023/11/12 01:58:31;;;;;;;25.73;5.20;;;27.10;59.60;;;;;;4931829;29;20243;-75
2023/11/12 02:00:59;;;;;;;29.67;5.73;;;27.20;58.40;;;;;;4914730;29;20587;-74
2023/11/12 02:03:27;;;;;;;25.20;5.67;;;26.90;59.90;;;;;;4937524;29;20180;-76
2023/11/12 02:05:54;;;;;;;18.57;5.23;;;26.90;60.00;;;;;;4934555;29;20184;-73
2023/11/12 02:08:22;;;;;;;28.63;5.27;;;27.30;59.20;;;;;;4931149;29;20191;-75
2023/11/12 02:10:54;;;;;;;22.60;5.83;;;27.70;58.50;;;;;;4937572;29;20176;-74
2023/11/12 02:13:22;;;;;;;24.03;5.73;;;27.60;58.50;;;;;;4929403;29;20573;-73
2023/11/12 02:15:50;;;;;;;20.10;5.40;;;27.80;58.00;;;;;;4926691;29;20185;-73
2023/11/12 02:18:18;;;;;;;30.87;5.80;;;28.30;57.20;;;;;;4937141;29;20211;-72
2023/11/12 02:20:46;;;;;;;23.97;5.40;;;28.40;56.00;;;;;;4933195;29;20228;-73
2023/11/12 02:23:15;;;;;;;25.13;5.77;;;28.30;56.10;;;;;;4936266;29;20585;-72
2023/11/12 02:25:44;;;;;;;24.30;4.90;;;27.60;58.10;;;;;;4929166;29;20181;-72
2023/11/12 02:28:17;;;;;;;27.47;6.07;;;27.50;58.00;;;;;;4930372;29;20594;-72
2023/11/12 02:30:45;;;;;;;13.67;3.43;;;27.40;59.10;;;;;;4931545;29;20689;-72
2023/11/12 02:33:12;;;;;;;23.27;4.93;;;27.60;58.30;;;;;;4932147;29;20192;-73
2023/11/12 02:35:42;;;;;;;24.27;4.87;;;27.20;58.80;;;;;;4935330;29;20576;-71
2023/11/12 02:38:12;;;;;;;19.63;5.13;;;26.80;60.40;;;;;;4931754;29;20216;-73
2023/11/12 02:40:45;;;;;;;22.43;5.70;;;26.30;61.60;;;;;;4930823;29;20196;-76
2023/11/12 02:43:13;;;;;;;24.70;5.00;;;26.30;62.20;;;;;;4930901;29;20192;-73
2023/11/12 02:45:40;;;;;;;23.97;5.33;;;25.90;63.10;;;;;;4930435;29;20184;-74
2023/11/12 02:48:08;;;;;;;21.47;5.27;;;26.30;63.00;;;;;;4936537;29;20635;-73
2023/11/12 02:50:35;;;;;;;25.47;5.63;;;26.30;61.90;;;;;;4926938;29;20180;-72
2023/11/12 02:53:05;;;;;;;27.23;5.50;;;26.20;63.00;;;;;;4936545;29;20239;-74
2023/11/12 02:55:34;;;;;;;18.07;5.00;;;26.00;63.30;;;;;;4933640;29;20543;-73
2023/11/12 02:58:02;;;;;;;23.63;5.53;;;26.00;63.80;;;;;;4934551;29;20216;-74
2023/11/12 03:00:29;;;;;;;25.70;5.00;;;25.90;64.00;;;;;;4930551;29;20223;-77
2023/11/12 03:02:58;;;;;;;25.80;5.20;;;25.80;64.60;;;;;;4930121;29;20654;-73
2023/11/12 03:05:27;;;;;;;25.80;5.60;;;25.30;65.70;;;;;;4932152;29;20195;-72
2023/11/12 03:07:55;;;;;;;28.13;6.03;;;25.20;66.00;;;;;;4935996;29;20550;-72
2023/11/12 03:10:22;;;;;;;30.97;5.97;;;25.10;67.30;;;;;;4936296;29;20239;-71
2023/11/12 03:12:50;;;;;;;27.23;5.00;;;25.30;66.70;;;;;;4936098;29;20176;-77
2023/11/12 03:15:18;;;;;;;20.87;5.07;;;25.30;66.10;;;;;;4936033;29;20658;-73
2023/11/12 03:17:46;;;;;;;22.30;4.73;;;25.10;66.40;;;;;;4935844;29;20206;-73
2023/11/12 03:20:15;;;;;;;30.80;6.33;;;25.00;67.80;;;;;;4935176;29;20219;-74
2023/11/12 03:22:43;;;;;;;30.03;5.97;;;25.20;67.80;;;;;;4936456;29;20631;-77
2023/11/12 03:25:10;;;;;;;28.30;6.83;;;25.20;67.40;;;;;;4936194;29;20538;-73
2023/11/12 03:27:38;;;;;;;28.10;5.40;;;25.20;66.70;;;;;;4935831;29;20735;-74
2023/11/12 03:30:08;;;;;;;29.40;6.70;;;25.20;67.10;;;;;;4935876;29;20260;-73
2023/11/12 03:32:35;;;;;;;23.60;5.87;;;25.30;68.50;;;;;;4935713;29;20176;-76
2023/11/12 03:35:03;;;;;;;30.87;5.83;;;25.30;66.70;;;;;;4936035;29;20176;-74
2023/11/12 03:37:30;;;;;;;23.80;5.47;;;25.30;67.80;;;;;;4936321;29;20215;-72
2023/11/12 03:39:57;;;;;;;31.10;6.07;;;25.20;68.20;;;;;;4935690;29;20721;-76
2023/11/12 03:42:25;;;;;;;30.10;5.47;;;25.20;67.90;;;;;;4935722;29;20184;-72
2023/11/12 03:44:52;;;;;;;30.63;5.63;;;25.20;67.70;;;;;;4935661;29;20180;-78
2023/11/12 03:47:19;;;;;;;27.93;5.23;;;25.30;67.20;;;;;;4920046;29;20180;-73
2023/11/12 03:49:46;;;;;;;26.97;5.97;;;25.30;67.10;;;;;;4933982;29;20188;-74
2023/11/12 03:52:14;;;;;;;34.00;6.27;;;25.40;67.60;;;;;;4935859;29;20182;-73
2023/11/12 03:54:41;;;;;;;30.90;6.07;;;25.30;66.80;;;;;;4935580;29;20180;-74
2023/11/12 03:57:09;;;;;;;33.53;6.33;;;25.40;67.30;;;;;;4935422;29;20642;-74
2023/11/12 03:59:37;;;;;;;30.53;6.43;;;25.30;67.20;;;;;;4935500;29;20215;-73
2023/11/12 04:02:05;;;;;;;22.93;5.70;;;25.20;66.90;;;;;;4935403;29;20284;-76
2023/11/12 04:04:32;;;;;;;24.97;5.33;;;25.00;69.00;;;;;;4935471;29;20176;-75
2023/11/12 04:07:00;;;;;;;29.23;5.87;;;25.10;68.00;;;;;;4935450;29;20524;-74
2023/11/12 04:09:27;;;;;;;27.87;6.33;;;24.90;68.30;;;;;;4935593;29;20196;-75
2023/11/12 04:11:54;;;;;;;30.73;5.83;;;24.80;69.30;;;;;;4935489;29;20642;-77
2023/11/12 04:14:22;;;;;;;32.20;6.50;;;25.10;68.20;;;;;;4935805;29;20184;-73
2023/11/12 04:16:49;;;;;;;27.17;5.40;;;25.50;67.20;;;;;;4935396;29;20183;-74
2023/11/12 04:19:16;;;;;;;28.37;6.00;;;26.10;65.60;;;;;;4935565;29;20238;-76
2023/11/12 04:21:47;;;;;;;31.87;6.23;;;26.60;64.70;;;;;;4935535;29;20256;-74
2023/11/12 04:24:14;;;;;;;21.73;5.00;;;26.80;63.50;;;;;;4935633;29;20247;-74
2023/11/12 04:26:42;;;;;;;30.57;6.30;;;26.80;62.70;;;;;;4935364;29;20184;-76
2023/11/12 04:29:09;;;;;;;34.93;6.53;;;26.10;65.00;;;;;;4935263;29;20651;-79
2023/11/12 04:31:39;;;;;;;35.27;7.03;;;25.40;67.20;;;;;;4934894;29;20188;-78
2023/11/12 04:34:07;;;;;;;22.53;5.53;;;25.00;68.90;;;;;;4939309;29;20188;-79
2023/11/12 04:36:37;;;;;;;32.83;5.93;;;24.80;68.50;;;;;;4939404;29;20766;-75
2023/11/12 04:39:07;;;;;;;30.17;6.80;;;25.10;69.30;;;;;;4939743;29;20226;-73
2023/11/12 04:41:34;;;;;;;31.00;6.40;;;25.40;68.70;;;;;;4939948;29;20184;-73
2023/11/12 04:44:01;;;;;;;30.07;5.50;;;25.80;67.20;;;;;;4939281;29;20271;-72
2023/11/12 04:46:30;;;;;;;27.80;6.43;;;25.90;66.90;;;;;;4938888;29;20207;-73
2023/11/12 04:48:58;;;;;;;30.10;5.80;;;26.10;66.80;;;;;;4938888;29;20542;-74
2023/11/12 04:51:26;;;;;;;28.00;5.93;;;26.50;64.00;;;;;;4939103;29;20176;-73
2023/11/12 04:53:54;;;;;;;29.43;5.80;;;26.40;64.80;;;;;;4938706;29;20180;-74
2023/11/12 04:56:21;;;;;;;30.33;5.93;;;26.40;65.40;;;;;;4938173;29;20180;-72
2023/11/12 04:58:49;;;;;;;32.13;7.17;;;26.30;66.00;;;;;;4938918;29;20571;-72
2023/11/12 05:01:17;;;;;;;32.80;5.97;;;25.80;67.90;;;;;;4938611;29;20180;-72
2023/11/12 05:03:45;;;;;;;26.43;5.90;;;25.60;67.30;;;;;;4938634;29;20184;-71
2023/11/12 05:06:14;;;;;;;36.77;7.43;;;25.10;69.00;;;;;;4935536;29;20674;-72
2023/11/12 05:08:42;;;;;;;33.30;7.00;;;25.00;71.20;;;;;;4935078;29;20184;-73
2023/11/12 05:11:10;;;;;;;29.87;6.47;;;25.50;68.70;;;;;;4932851;29;20271;-72
2023/11/12 05:13:37;;;;;;;31.90;6.60;;;24.80;70.30;;;;;;4926619;29;20207;-72
2023/11/12 05:16:05;;;;;;;40.10;6.80;;;24.50;71.60;;;;;;4937246;29;20651;-72
2023/11/12 05:18:33;;;;;;;31.40;6.23;;;24.40;72.70;;;;;;4936492;29;20207;-73
2023/11/12 05:21:00;;;;;;;37.00;6.37;;;24.20;72.40;;;;;;4937546;29;20255;-75
2023/11/12 05:23:28;;;;;;;31.93;6.03;;;24.20;72.90;;;;;;4917817;29;20223;-74
2023/11/12 05:25:58;;;;;;;30.53;6.20;;;24.00;72.90;;;;;;4936581;29;20184;-74
2023/11/12 05:28:25;;;;;;;21.97;5.30;;;23.90;73.10;;;;;;4938073;29;20248;-71
2023/11/12 05:30:53;;;;;;;27.50;5.60;;;24.20;72.40;;;;;;4934218;29;20184;-72
2023/11/12 05:33:20;;;;;;;27.90;6.13;;;24.60;71.70;;;;;;4930435;29;20247;-71
2023/11/12 05:35:48;;;;;;;19.40;5.50;;;24.70;70.90;;;;;;4934819;29;20184;-71
2023/11/12 05:38:16;;;;;;;21.67;5.70;;;24.90;70.70;;;;;;4919043;29;20227;-72
2023/11/12 05:40:43;;;;;;;26.93;5.83;;;25.00;69.40;;;;;;4934187;29;20172;-73
2023/11/12 05:43:11;;;;;;;24.07;5.67;;;24.90;70.90;;;;;;4927500;29;20189;-72
2023/11/12 05:45:38;;;;;;;24.80;5.67;;;25.10;70.00;;;;;;4936936;29;20188;-73
2023/11/12 05:48:07;;;;;;;28.80;5.90;;;24.80;70.00;;;;;;4937444;29;20180;-73
2023/11/12 05:50:34;;;;;;;28.20;5.80;;;24.50;71.70;;;;;;4937226;29;20176;-72
2023/11/12 05:53:02;;;;;;;24.73;6.53;;;24.30;72.40;;;;;;4937397;29;20176;-74
2023/11/12 05:55:29;;;;;;;30.67;6.37;;;24.20;72.40;;;;;;4935662;29;20750;-74
2023/11/12 05:57:57;;;;;;;27.73;5.77;;;24.10;73.00;;;;;;4937249;29;20754;-73
2023/11/12 06:00:25;;;;;;;33.27;6.63;;;24.00;73.20;;;;;;4937493;29;20184;-74
2023/11/12 06:02:53;;;;;;;32.10;6.97;;;23.90;73.70;;;;;;4937684;29;20231;-74
2023/11/12 06:05:20;;;;;;;27.80;5.90;;;23.90;74.10;;;;;;4937692;29;20199;-73
2023/11/12 06:07:47;;;;;;;25.47;6.00;;;23.90;73.70;;;;;;4937176;29;20196;-73
2023/11/12 06:10:14;;;;;;;24.90;6.27;;;24.20;74.10;;;;;;4935988;29;20192;-74
2023/11/12 06:12:42;;;;;;;32.97;6.40;;;24.60;73.20;;;;;;4923417;29;20275;-76
2023/11/12 06:15:09;;;;;;;25.37;7.03;;;25.50;70.70;;;;;;4934926;29;20219;-73
2023/11/12 06:17:37;;;;;;;24.73;5.17;;;26.20;66.70;;;;;;4936893;29;20762;-75
2023/11/12 06:20:06;;;;;;;35.40;6.40;;;26.30;66.40;;;;;;4935642;29;20267;-75
2023/11/12 06:22:34;;;;;;;26.40;7.07;;;27.20;65.20;;;;;;4936549;29;20566;-75
2023/11/12 06:25:01;;;;;;;23.73;5.43;;;27.90;61.90;;;;;;4936113;29;20525;-75
2023/11/12 06:27:28;;;;;;;30.70;6.30;;;27.60;63.00;;;;;;4935945;29;20199;-77
2023/11/12 06:29:55;;;;;;;25.30;5.53;;;27.80;61.90;;;;;;4935599;29;20198;-75
2023/11/12 06:32:23;;;;;;;23.43;5.67;;;26.80;64.60;;;;;;4927978;29;20183;-73
2023/11/12 06:34:50;;;;;;;25.77;5.87;;;27.00;64.20;;;;;;4934721;29;20192;-75
2023/11/12 06:37:17;;;;;;;28.50;6.57;;;26.80;65.20;;;;;;4935300;29;20211;-75
2023/11/12 06:39:46;;;;;;;25.20;6.30;;;26.80;65.30;;;;;;4935578;29;20283;-74
2023/11/12 06:42:13;;;;;;;25.37;6.33;;;27.20;63.40;;;;;;4918793;29;20180;-74
2023/11/12 06:44:40;;;;;;;31.23;7.57;;;27.30;63.50;;;;;;4919553;29;20279;-73
2023/11/12 06:47:08;;;;;;;28.33;7.17;;;27.50;62.30;;;;;;4936472;29;20176;-74
2023/11/12 06:49:35;;;;;;;29.17;7.33;;;27.30;63.20;;;;;;4935487;29;20274;-72
2023/11/12 06:52:02;;;;;;;31.07;7.47;;;27.30;64.30;;;;;;4936033;29;20643;-74
2023/11/12 06:54:30;;;;;;;24.43;6.60;;;26.60;65.70;;;;;;4936368;29;20180;-74
2023/11/12 06:56:57;;;;;;;34.60;7.30;;;26.80;66.40;;;;;;4935232;29;20192;-73
2023/11/12 06:59:25;;;;;;;31.40;6.53;;;27.00;66.00;;;;;;4936103;29;20204;-73
2023/11/12 07:01:52;;;;;;;27.87;7.20;;;26.60;64.90;;;;;;4935168;29;20192;-74
2023/11/12 07:04:20;;;;;;;26.63;6.60;;;26.50;66.80;;;;;;4935714;29;20203;-71
2023/11/12 07:06:47;;;;;;;30.93;7.47;;;26.40;66.00;;;;;;4935229;29;20192;-72
2023/11/12 07:09:15;;;;;;;34.00;6.67;;;26.20;67.70;;;;;;4933001;29;20661;-73
2023/11/12 07:11:42;;;;;;;26.93;7.33;;;26.10;67.40;;;;;;4933991;29;20200;-74
2023/11/12 07:14:10;;;;;;;30.17;7.20;;;25.80;68.90;;;;;;4923642;29;20185;-73
2023/11/12 07:16:38;;;;;;;31.83;7.17;;;25.50;70.00;;;;;;4941104;29;20207;-75
2023/11/12 07:19:06;;;;;;;33.70;7.87;;;25.50;70.30;;;;;;4937244;29;20237;-73
2023/11/12 07:21:34;;;;;;;36.93;7.57;;;25.60;69.70;;;;;;4931639;29;20234;-73
2023/11/12 07:24:02;;;;;;;30.07;7.37;;;25.60;69.40;;;;;;4929816;29;20188;-76
2023/11/12 07:26:29;;;;;;;32.33;7.70;;;25.30;70.40;;;;;;4933019;29;20244;-75
2023/11/12 07:28:57;;;;;;;31.73;7.47;;;25.10;71.20;;;;;;4933425;29;20187;-74
2023/11/12 07:31:25;;;;;;;36.60;8.03;;;24.90;73.30;;;;;;4935039;29;20266;-73
2023/11/12 07:33:52;;;;;;;32.27;6.90;;;24.80;72.30;;;;;;4933473;29;20200;-72
2023/11/12 07:36:21;;;;;;;32.43;7.43;;;24.70;73.40;;;;;;4918044;29;20188;-73
2023/11/12 07:38:49;;;;;;;28.40;7.37;;;24.60;73.70;;;;;;4933257;29;20223;-72
2023/11/12 07:41:16;;;;;;;32.73;6.97;;;24.50;74.00;;;;;;4933854;29;20192;-72
2023/11/12 07:43:44;;;;;;;35.27;7.17;;;24.50;73.20;;;;;;4934787;29;20230;-72
2023/11/12 07:46:12;;;;;;;27.47;7.07;;;24.30;74.10;;;;;;4935158;29;20183;-72
2023/11/12 07:48:39;;;;;;;31.67;7.40;;;24.30;74.10;;;;;;4935380;29;20231;-74
2023/11/12 07:51:07;;;;;;;34.17;7.27;;;24.20;74.40;;;;;;4933833;29;20591;-75
2023/11/12 07:53:36;;;;;;;32.50;7.10;;;24.20;74.90;;;;;;4929802;29;20207;-73
2023/11/12 07:56:06;;;;;;;39.70;8.20;;;24.10;75.00;;;;;;4930893;29;20617;-74
2023/11/12 07:58:35;;;;;;;34.03;7.27;;;24.00;75.00;;;;;;4935134;29;20233;-72
2023/11/12 08:01:03;;;;;;;35.30;8.50;;;24.00;75.40;;;;;;4935388;29;20199;-72
2023/11/12 08:03:31;;;;;;;29.13;7.83;;;23.90;75.60;;;;;;4931611;29;20253;-73
2023/11/12 08:05:59;;;;;;;36.53;8.17;;;23.80;76.00;;;;;;4937741;29;20207;-73
2023/11/12 08:08:26;;;;;;;40.67;8.37;;;23.70;76.30;;;;;;4941950;29;20266;-73
2023/11/12 08:10:54;;;;;;;31.93;7.67;;;23.50;76.70;;;;;;4939916;29;20195;-73
2023/11/12 08:13:21;;;;;;;31.33;8.40;;;23.40;77.00;;;;;;4941693;29;20250;-72
2023/11/12 08:15:49;;;;;;;32.30;7.20;;;23.40;77.00;;;;;;4941638;29;20183;-72
2023/11/12 08:18:16;;;;;;;28.03;7.57;;;23.30;77.40;;;;;;4939651;29;20222;-72
2023/11/12 08:20:44;;;;;;;29.00;7.47;;;23.30;77.70;;;;;;4940393;29;20810;-75
2023/11/12 08:23:11;;;;;;;33.33;8.67;;;23.20;78.40;;;;;;4941984;29;20179;-75
2023/11/12 08:25:38;;;;;;;37.53;8.07;;;23.10;78.70;;;;;;4940696;29;20226;-71
2023/11/12 08:28:06;;;;;;;33.63;7.53;;;23.00;79.50;;;;;;4939390;29;20191;-72
2023/11/12 08:30:33;;;;;;;29.73;7.43;;;22.80;80.10;;;;;;4939077;29;20195;-73
2023/11/12 08:33:01;;;;;;;36.80;8.20;;;22.70;80.80;;;;;;4934098;29;20259;-73
2023/11/12 08:35:30;;;;;;;32.03;7.30;;;22.50;81.20;;;;;;4933782;29;20242;-72
2023/11/12 08:37:59;;;;;;;39.73;7.93;;;22.30;81.80;;;;;;4939735;29;20736;-73
2023/11/12 08:40:26;;;;;;;48.83;8.47;;;22.30;82.60;;;;;;4934017;29;20216;-72
2023/11/12 08:42:54;;;;;;;36.97;7.03;;;22.20;82.90;;;;;;4940774;29;20199;-76
2023/11/12 08:45:21;;;;;;;43.93;8.00;;;22.10;83.30;;;;;;4938776;29;20187;-73
2023/11/12 08:47:48;;;;;;;37.87;8.07;;;21.90;83.80;;;;;;4935640;29;20202;-73
2023/11/12 08:50:16;;;;;;;32.37;7.30;;;21.80;84.40;;;;;;4935487;29;20558;-72
2023/11/12 08:52:43;;;;;;;32.80;7.33;;;21.80;84.50;;;;;;4934659;29;20196;-73
2023/11/12 08:55:11;;;;;;;32.97;7.10;;;21.70;84.60;;;;;;4936688;29;20224;-73
2023/11/12 08:57:40;;;;;;;39.37;7.30;;;21.70;84.80;;;;;;4934454;29;20215;-72
2023/11/12 09:00:08;;;;;;;45.63;7.73;;;21.70;85.10;;;;;;4933262;29;21174;-78
2023/11/12 09:02:36;;;;;;;37.70;7.87;;;21.70;85.10;;;;;;4936751;29;20191;-74
2023/11/12 09:05:04;;;;;;;32.60;7.17;;;21.60;85.30;;;;;;4914878;29;20294;-76
2023/11/12 09:07:32;;;;;;;38.77;6.90;;;21.60;85.20;;;;;;4934768;29;20215;-73
2023/11/12 09:09:59;;;;;;;36.40;7.30;;;21.60;85.30;;;;;;4937623;29;20191;-73
2023/11/12 09:12:27;;;;;;;32.57;6.67;;;21.60;85.30;;;;;;4936563;29;20183;-73
2023/11/12 09:14:55;;;;;;;40.07;7.27;;;21.70;85.20;;;;;;4937758;29;20188;-74
2023/11/12 09:17:22;;;;;;;42.90;7.50;;;21.70;85.20;;;;;;4932884;29;20188;-75
2023/11/12 09:19:49;;;;;;;36.33;7.10;;;21.70;85.30;;;;;;4930534;29;20223;-74
2023/11/12 09:22:17;;;;;;;40.80;7.70;;;21.70;85.20;;;;;;4930878;29;20347;-78
2023/11/12 09:24:47;;;;;;;36.13;7.13;;;21.60;85.10;;;;;;4937526;29;20188;-74
2023/11/12 09:27:14;;;;;;;34.83;6.53;;;21.50;84.90;;;;;;4933394;29;20228;-74
2023/11/12 09:29:41;;;;;;;31.17;6.27;;;21.50;85.20;;;;;;4934604;29;20581;-75
2023/11/12 09:32:09;;;;;;;28.13;6.13;;;21.50;85.10;;;;;;4933348;29;20188;-73
2023/11/12 09:34:36;;;;;;;33.80;5.97;;;21.50;85.20;;;;;;4917222;29;20187;-73
2023/11/12 09:37:04;;;;;;;36.80;5.63;;;21.50;85.00;;;;;;4932598;29;20232;-74
2023/11/12 09:39:32;;;;;;;30.57;5.73;;;21.40;85.00;;;;;;4933357;29;20254;-74
2023/11/12 09:42:04;;;;;;;33.43;6.03;;;21.40;85.10;;;;;;4933561;29;20237;-73
2023/11/12 09:44:32;;;;;;;29.00;6.47;;;21.30;84.80;;;;;;4935710;29;20188;-72
2023/11/12 09:47:51;;;;;;;27.80;7.10;;;21.30;85.00;;;;;;4929735;29;20184;-78
2023/11/12 09:50:20;;;;;;;25.57;5.97;;;21.30;84.70;;;;;;4857229;29;20201;-74
2023/11/12 09:52:49;;;;;;;34.90;6.80;;;21.30;84.60;;;;;;4920664;29;20686;-77
2023/11/12 09:55:19;;;;;;;25.17;5.93;;;21.20;84.50;;;;;;4935597;29;20191;-76
2023/11/12 09:57:48;;;;;;;25.80;5.27;;;21.10;84.50;;;;;;4933813;29;20485;-73
2023/11/12 10:00:16;;;;;;;26.80;5.77;;;21.10;84.60;;;;;;4936347;29;20192;-76
2023/11/12 10:02:47;;;;;;;29.70;5.70;;;21.30;84.60;;;;;;4937174;29;20216;-73
2023/11/12 10:05:15;;;;;;;24.23;6.10;;;21.10;84.30;;;;;;4939790;29;20195;-73
2023/11/12 10:07:44;;;;;;;28.10;5.83;;;21.20;84.30;;;;;;4936254;29;20596;-75
2023/11/12 10:10:31;;;;;;;23.13;5.70;;;21.20;84.20;;;;;;4933708;29;20192;-73
2023/11/12 10:13:02;;;;;;;30.00;6.47;;;21.30;84.10;;;;;;4935128;29;20187;-71
2023/11/12 10:15:33;;;;;;;32.23;6.47;;;21.30;84.10;;;;;;4935811;29;20186;-72
2023/11/12 10:18:01;;;;;;;27.03;5.63;;;21.20;84.00;;;;;;4933845;29;20208;-73
2023/11/12 10:20:37;;;;;;;24.63;6.00;;;21.30;83.90;;;;;;4934961;29;20710;-73
2023/11/12 10:23:04;;;;;;;36.93;6.87;;;21.30;83.50;;;;;;4936358;29;20187;-71
2023/11/12 10:25:48;;;;;;;26.97;5.97;;;21.20;83.70;;;;;;4934275;29;20255;-73
2023/11/12 10:28:16;;;;;;;36.10;5.93;;;21.10;83.70;;;;;;4921869;29;20185;-73
2023/11/12 10:30:46;;;;;;;24.13;5.63;;;21.10;83.80;;;;;;4930384;29;20188;-72
2023/11/12 10:33:18;;;;;;;25.57;5.83;;;21.10;83.70;;;;;;4928694;29;20243;-74
2023/11/12 10:35:46;;;;;;;29.53;6.10;;;21.10;83.80;;;;;;4933928;29;20188;-76
2023/11/12 10:38:18;;;;;;;26.73;5.93;;;21.00;83.60;;;;;;4933954;29;20222;-74
2023/11/12 10:41:02;;;;;;;34.80;6.57;;;21.00;83.80;;;;;;4930298;29;20961;-74
2023/11/12 10:43:34;;;;;;;30.43;5.70;;;21.10;84.20;;;;;;4930499;29;20197;-72
2023/11/12 10:46:06;;;;;;;30.90;6.27;;;21.10;84.60;;;;;;4931100;29;20188;-72
2023/11/12 10:48:36;;;;;;;24.57;5.57;;;21.10;85.10;;;;;;4936578;29;20217;-78
2023/11/12 10:51:12;;;;;;;22.93;5.50;;;21.10;85.10;;;;;;4932113;29;20197;-74
2023/11/12 10:53:40;;;;;;;29.23;6.00;;;21.10;85.10;;;;;;4931594;29;20191;-72
2023/11/12 10:56:09;;;;;;;25.03;5.27;;;21.00;84.90;;;;;;4930502;29;20231;-74
2023/11/12 10:58:37;;;;;;;28.90;5.43;;;21.00;84.40;;;;;;4932663;29;20713;-74
2023/11/12 11:01:06;;;;;;;34.40;5.50;;;20.90;84.00;;;;;;4931876;29;20191;-73
2023/11/12 11:03:35;;;;;;;25.00;5.37;;;20.80;83.70;;;;;;4935364;29;20195;-71
2023/11/12 11:06:05;;;;;;;23.00;5.47;;;20.80;83.40;;;;;;4931273;29;20206;-74
2023/11/12 11:08:34;;;;;;;27.83;5.77;;;20.80;83.50;;;;;;4918185;29;20548;-73
2023/11/12 11:11:03;;;;;;;25.00;5.70;;;20.80;83.70;;;;;;4933191;29;20187;-73
2023/11/12 11:13:33;;;;;;;26.57;5.97;;;20.80;84.00;;;;;;4931336;29;20243;-73
2023/11/12 11:16:00;;;;;;;30.03;5.43;;;20.80;84.30;;;;;;4933094;29;20180;-73
2023/11/12 11:18:38;;;;;;;30.90;6.00;;;20.80;84.60;;;;;;4931938;29;20241;-73
2023/11/12 11:21:22;;;;;;;27.37;5.50;;;20.80;85.10;;;;;;4924634;29;20233;-74
2023/11/12 11:23:52;;;;;;;27.03;5.33;;;20.80;85.20;;;;;;4931761;29;20243;-76
2023/11/12 11:26:29;;;;;;;26.20;5.17;;;20.80;85.20;;;;;;4934166;29;20188;-75
2023/11/12 11:29:05;;;;;;;30.57;6.03;;;20.70;85.00;;;;;;4930725;29;20262;-73
2023/11/12 11:31:36;;;;;;;27.00;5.93;;;20.70;84.90;;;;;;4934448;29;20215;-77
2023/11/12 11:34:04;;;;;;;23.80;6.60;;;20.70;84.80;;;;;;4933445;29;20189;-71
2023/11/12 11:36:32;;;;;;;26.03;5.23;;;20.70;84.70;;;;;;4935964;29;20184;-76
2023/11/12 11:39:08;;;;;;;21.63;5.53;;;20.60;84.70;;;;;;4935020;29;20226;-72
2023/11/12 11:41:53;;;;;;;26.87;7.00;;;20.60;84.60;;;;;;4934537;29;20238;-73
2023/11/12 11:44:45;;;;;;;22.33;5.63;;;20.50;84.70;;;;;;4931913;29;20547;-74
2023/11/12 11:47:24;;;;;;;33.63;5.63;;;20.50;85.00;;;;;;4935824;29;20208;-72
2023/11/12 11:49:57;;;;;;;29.33;6.40;;;20.50;85.20;;;;;;4935015;29;20202;-72
2023/11/12 11:52:30;;;;;;;30.20;5.93;;;20.50;85.10;;;;;;4935198;29;20278;-71
2023/11/12 11:55:02;;;;;;;34.53;6.37;;;20.50;85.10;;;;;;4935055;29;20195;-73
2023/11/12 11:57:30;;;;;;;24.17;5.77;;;20.50;85.30;;;;;;4935131;29;20219;-73
2023/11/12 11:59:59;;;;;;;24.83;5.43;;;20.50;85.40;;;;;;4927167;29;20207;-72
2023/11/12 12:02:26;;;;;;;19.43;5.03;;;20.50;85.60;;;;;;4935393;29;20275;-76
2023/11/12 12:04:59;;;;;;;29.07;5.63;;;20.50;85.70;;;;;;4934793;29;20194;-72
2023/11/12 12:07:31;;;;;;;25.33;5.73;;;20.50;85.90;;;;;;4929379;29;20203;-72
2023/11/12 12:10:00;;;;;;;29.87;6.03;;;20.50;86.10;;;;;;4933311;29;20298;-72
2023/11/12 12:12:28;;;;;;;26.60;6.13;;;20.50;86.50;;;;;;4933172;29;20183;-72
2023/11/12 12:14:56;;;;;;;31.30;6.03;;;20.50;86.70;;;;;;4924873;29;20196;-73
2023/11/12 12:17:23;;;;;;;28.80;6.37;;;20.60;86.70;;;;;;4929481;29;20187;-73
2023/11/12 12:19:54;;;;;;;24.80;5.57;;;20.60;86.80;;;;;;4925199;29;20288;-71
2023/11/12 12:22:24;;;;;;;26.87;6.10;;;20.60;86.70;;;;;;4931783;29;20184;-72
2023/11/12 12:24:55;;;;;;;25.37;6.10;;;20.70;86.30;;;;;;4932799;29;20691;-73
2023/11/12 12:27:23;;;;;;;25.97;5.57;;;20.60;86.10;;;;;;4921904;29;20580;-79
2023/11/12 12:29:51;;;;;;;29.50;6.50;;;20.50;86.00;;;;;;4933425;29;20267;-79
2023/11/12 12:32:20;;;;;;;27.77;6.83;;;20.50;86.00;;;;;;4931558;29;20223;-73
2023/11/12 12:34:59;;;;;;;27.70;6.33;;;20.50;86.00;;;;;;4926593;29;20188;-74
2023/11/12 12:37:30;;;;;;;28.67;7.47;;;20.50;85.80;;;;;;4935387;29;20184;-75
2023/11/12 12:40:15;;;;;;;31.73;6.43;;;20.50;85.60;;;;;;4935039;29;20334;-74
2023/11/12 12:42:45;;;;;;;30.70;6.97;;;20.50;85.20;;;;;;4934218;29;20222;-73